createdAt,value
2018-11-06T00:00:23.583Z,99.99
2018-11-06T00:01:04.037Z,99.99
2018-11-06T00:01:44.403Z,99.99
2018-11-06T00:02:24.807Z,99.99
2018-11-06T00:03:05.162Z,99.99
2018-11-06T00:03:45.559Z,99.99
2018-11-06T00:04:25.935Z,99.99
2018-11-06T00:05:06.358Z,99.99
2018-11-06T00:05:46.739Z,99.99
2018-11-06T00:06:27.125Z,99.99
2018-11-06T00:07:07.511Z,99.99
2018-11-06T00:07:47.921Z,99.99
2018-11-06T00:08:28.312Z,99.99
2018-11-06T00:09:08.740Z,99.99
2018-11-06T00:09:49.097Z,99.99
2018-11-06T00:10:29.500Z,99.99
2018-11-06T00:11:09.919Z,99.99
2018-11-06T00:11:50.316Z,99.99
2018-11-06T00:12:30.699Z,99.99
2018-11-06T00:13:11.050Z,99.99
2018-11-06T00:13:51.504Z,99.99
2018-11-06T00:14:31.851Z,99.99
2018-11-06T00:15:12.488Z,99.99
2018-11-06T00:15:52.713Z,99.99
2018-11-06T00:16:33.030Z,99.99
2018-11-06T00:17:13.467Z,99.99
2018-11-06T00:17:53.837Z,99.99
2018-11-06T00:18:34.230Z,99.99
2018-11-06T00:19:14.628Z,99.99
2018-11-06T00:19:54.967Z,99.99
2018-11-06T00:20:35.384Z,99.99
2018-11-06T00:21:15.769Z,99.99
2018-11-06T00:21:56.161Z,99.99
2018-11-06T00:22:36.547Z,99.99
2018-11-06T00:23:16.980Z,99.99
2018-11-06T00:23:57.382Z,99.99
2018-11-06T00:24:37.805Z,99.99
2018-11-06T00:25:18.189Z,99.99
2018-11-06T00:25:58.580Z,99.99
2018-11-06T00:26:38.985Z,99.99
2018-11-06T00:27:19.400Z,99.99
2018-11-06T00:27:59.738Z,99.99
2018-11-06T00:28:40.124Z,99.99
2018-11-06T00:29:20.546Z,99.99
2018-11-06T00:30:00.985Z,99.99
2018-11-06T00:30:41.323Z,99.99
2018-11-06T00:31:21.709Z,99.99
2018-11-06T00:32:02.163Z,99.99
2018-11-06T00:32:42.518Z,99.99
2018-11-06T00:33:22.899Z,99.99
2018-11-06T00:34:03.289Z,99.99
2018-11-06T00:34:43.667Z,99.99
2018-11-06T00:35:24.058Z,99.99
2018-11-06T00:36:04.439Z,99.99
2018-11-06T00:36:44.827Z,99.99
2018-11-06T00:37:25.259Z,99.99
2018-11-06T00:38:05.639Z,99.99
2018-11-06T00:38:46.027Z,99.99
2018-11-06T00:39:26.436Z,99.99
2018-11-06T00:41:23.810Z,99.99
2018-11-06T00:42:04.204Z,99.99
2018-11-06T00:42:44.566Z,99.99
2018-11-06T00:44:31.850Z,99.99
2018-11-06T00:45:12.236Z,99.99
2018-11-06T00:45:52.641Z,99.99
2018-11-06T00:46:32.999Z,99.99
2018-11-06T00:47:13.393Z,99.99
2018-11-06T00:47:53.786Z,99.99
2018-11-06T00:48:34.188Z,99.99
2018-11-06T00:49:14.618Z,99.99
2018-11-06T00:49:54.953Z,99.99
2018-11-06T00:50:35.355Z,99.99
2018-11-06T00:51:15.868Z,99.99
2018-11-06T00:51:56.275Z,99.99
2018-11-06T00:52:36.643Z,99.99
2018-11-06T00:53:17.039Z,99.99
2018-11-06T00:53:57.408Z,99.99
2018-11-06T00:54:37.818Z,99.99
2018-11-06T00:55:18.194Z,99.99
2018-11-06T00:55:58.585Z,99.99
2018-11-06T00:56:38.992Z,99.99
2018-11-06T00:57:19.365Z,99.99
2018-11-06T00:57:59.785Z,99.99
2018-11-06T00:58:40.175Z,99.99
2018-11-06T00:59:20.588Z,99.99
2018-11-06T01:00:01.002Z,99.99
2018-11-06T01:00:41.412Z,99.99
2018-11-06T01:01:21.809Z,99.99
2018-11-06T01:02:02.172Z,99.99
2018-11-06T01:02:42.545Z,99.99
2018-11-06T01:03:22.934Z,99.99
2018-11-06T01:04:03.352Z,99.99
2018-11-06T01:04:43.777Z,99.99
2018-11-06T01:05:24.528Z,99.99
2018-11-06T01:06:04.708Z,99.99
2018-11-06T01:06:45.104Z,99.99
2018-11-06T01:07:25.493Z,99.99
2018-11-06T01:08:07.041Z,99.99
2018-11-06T01:08:47.481Z,99.99
2018-11-06T01:09:27.851Z,99.99
2018-11-06T01:10:08.234Z,99.99
2018-11-06T01:10:48.643Z,99.99
2018-11-06T01:11:29.044Z,99.99
2018-11-06T01:12:09.494Z,99.99
2018-11-06T01:12:49.897Z,99.99
2018-11-06T01:13:30.274Z,99.99
2018-11-06T01:14:10.710Z,99.99
2018-11-06T01:14:51.044Z,99.99
2018-11-06T01:15:31.458Z,99.99
2018-11-06T01:16:11.863Z,99.99
2018-11-06T01:16:52.287Z,99.99
2018-11-06T01:17:32.692Z,99.99
2018-11-06T01:18:13.107Z,99.99
2018-11-06T01:18:53.527Z,99.99
2018-11-06T01:19:33.943Z,99.99
2018-11-06T01:20:14.291Z,99.99
2018-11-06T01:20:54.681Z,99.99
2018-11-06T01:21:35.093Z,99.99
2018-11-06T01:22:15.498Z,99.99
2018-11-06T01:22:55.889Z,99.99
2018-11-06T01:23:36.284Z,99.99
2018-11-06T01:24:16.688Z,99.99
2018-11-06T01:24:57.046Z,99.99
2018-11-06T01:25:37.464Z,99.99
2018-11-06T01:26:17.873Z,99.99
2018-11-06T01:26:58.357Z,99.99
2018-11-06T01:27:38.714Z,99.99
2018-11-06T01:28:19.105Z,99.99
2018-11-06T01:28:59.505Z,99.99
2018-11-06T01:29:39.966Z,99.99
2018-11-06T01:30:20.287Z,99.99
2018-11-06T01:31:00.739Z,99.99
2018-11-06T01:31:41.143Z,99.99
2018-11-06T01:32:21.497Z,99.99
2018-11-06T01:33:01.911Z,99.99
2018-11-06T01:33:42.291Z,99.99
2018-11-06T01:35:29.569Z,99.99
2018-11-06T01:36:09.956Z,99.99
2018-11-06T01:36:50.337Z,99.99
2018-11-06T01:37:30.757Z,99.99
2018-11-06T01:38:11.132Z,99.99
2018-11-06T01:38:51.513Z,99.99
2018-11-06T01:39:31.950Z,99.99
2018-11-06T01:40:12.310Z,99.99
2018-11-06T01:40:52.689Z,99.99
2018-11-06T01:41:33.082Z,99.99
2018-11-06T01:42:13.565Z,99.99
2018-11-06T01:42:53.895Z,99.99
2018-11-06T01:43:34.318Z,99.99
2018-11-06T01:44:14.695Z,99.99
2018-11-06T01:44:55.097Z,99.99
2018-11-06T01:45:35.482Z,99.99
2018-11-06T01:46:15.923Z,99.99
2018-11-06T01:46:56.273Z,99.99
2018-11-06T01:47:36.705Z,99.99
2018-11-06T01:48:17.143Z,99.99
2018-11-06T01:48:57.536Z,99.99
2018-11-06T01:49:37.925Z,99.99
2018-11-06T01:50:18.318Z,99.99
2018-11-06T01:50:58.687Z,99.99
2018-11-06T01:51:39.121Z,99.99
2018-11-06T01:52:19.545Z,99.99
2018-11-06T01:52:59.890Z,99.99
2018-11-06T01:53:40.269Z,99.99
2018-11-06T01:54:20.682Z,99.99
2018-11-06T01:55:01.086Z,99.99
2018-11-06T01:55:41.468Z,99.99
2018-11-06T01:56:21.903Z,99.99
2018-11-06T01:57:02.303Z,99.99
2018-11-06T01:57:42.643Z,99.99
2018-11-06T02:00:33.773Z,99.99
2018-11-06T02:01:14.148Z,99.99
2018-11-06T02:01:54.557Z,99.99
2018-11-06T02:02:34.941Z,99.99
2018-11-06T02:03:15.325Z,99.99
2018-11-06T02:03:55.730Z,99.99
2018-11-06T02:04:36.158Z,99.99
2018-11-06T02:05:16.524Z,99.99
2018-11-06T02:05:56.884Z,99.99
2018-11-06T02:06:37.265Z,99.99
2018-11-06T02:07:17.663Z,99.99
2018-11-06T02:07:58.043Z,99.99
2018-11-06T02:08:38.443Z,99.99
2018-11-06T02:09:18.857Z,99.99
2018-11-06T02:09:59.244Z,99.99
2018-11-06T02:10:39.651Z,99.99
2018-11-06T02:11:20.064Z,99.99
2018-11-06T02:12:00.446Z,99.99
2018-11-06T02:12:40.871Z,99.99
2018-11-06T02:13:21.220Z,99.99
2018-11-06T02:14:01.673Z,99.99
2018-11-06T02:14:42.108Z,99.99
2018-11-06T02:15:22.478Z,99.99
2018-11-06T02:16:02.935Z,99.99
2018-11-06T02:18:00.327Z,99.99
2018-11-06T02:18:40.741Z,99.99
2018-11-06T02:19:21.129Z,99.99
2018-11-06T02:20:01.513Z,99.99
2018-11-06T02:20:41.896Z,99.99
2018-11-06T02:21:22.301Z,99.99
2018-11-06T02:22:02.681Z,99.99
2018-11-06T02:22:43.141Z,99.99
2018-11-06T02:23:23.484Z,99.99
2018-11-06T02:24:03.876Z,99.99
2018-11-06T02:24:44.255Z,99.99
2018-11-06T02:25:24.648Z,99.99
2018-11-06T02:26:05.086Z,99.99
2018-11-06T02:26:45.455Z,99.99
2018-11-06T02:27:25.858Z,99.99
2018-11-06T02:28:06.282Z,99.99
2018-11-06T02:28:46.650Z,99.99
2018-11-06T02:29:27.065Z,99.99
2018-11-06T02:30:07.472Z,99.99
2018-11-06T02:30:47.859Z,99.99
2018-11-06T02:31:28.218Z,99.99
2018-11-06T02:32:08.662Z,99.99
2018-11-06T02:32:49.001Z,99.99
2018-11-06T02:33:29.435Z,99.99
2018-11-06T02:34:09.803Z,99.99
2018-11-06T02:34:50.213Z,99.99
2018-11-06T02:35:30.560Z,99.99
2018-11-06T02:37:28.884Z,99.99
2018-11-06T02:38:13.991Z,99.99
2018-11-06T02:38:56.865Z,99.99
2018-11-06T02:39:37.179Z,99.99
2018-11-06T02:40:17.567Z,99.99
2018-11-06T02:40:57.949Z,99.99
2018-11-06T02:41:38.825Z,99.99
2018-11-06T02:42:19.373Z,99.99
2018-11-06T02:42:59.797Z,99.99
2018-11-06T02:43:40.500Z,99.99
2018-11-06T02:44:21.069Z,99.99
2018-11-06T02:45:01.897Z,99.99
2018-11-06T02:45:42.592Z,99.99
2018-11-06T02:46:23.826Z,99.41
2018-11-06T02:47:04.242Z,99.41
2018-11-06T02:47:45.966Z,99.8
2018-11-06T02:48:26.786Z,98.99
2018-11-06T02:49:08.472Z,98.8
2018-11-06T02:49:52.980Z,98.99
2018-11-06T02:50:33.505Z,98.42
2018-11-06T02:51:14.010Z,98.9
2018-11-06T02:51:54.387Z,98.61
2018-11-06T02:52:34.803Z,98.22
2018-11-06T02:53:15.209Z,98.22
2018-11-06T02:53:55.627Z,98.32
2018-11-06T02:54:36.106Z,98.7
2018-11-06T02:55:16.476Z,98.8
2018-11-06T02:55:57.006Z,98.85
2018-11-06T02:56:37.534Z,99.46
2018-11-06T02:57:18.134Z,99.99
2018-11-06T02:58:00.514Z,99.99
2018-11-06T02:58:41.837Z,99.99
2018-11-06T02:59:22.226Z,99.89
2018-11-06T03:00:03.228Z,99.99
2018-11-06T03:00:44.354Z,99.99
2018-11-06T03:01:24.463Z,99.99
2018-11-06T03:02:05.009Z,99.99
2018-11-06T03:02:45.493Z,99.99
2018-11-06T03:03:26.141Z,99.99
2018-11-06T03:04:06.445Z,99.99
2018-11-06T03:04:48.844Z,99.99
2018-11-06T03:05:28.302Z,99.99
2018-11-06T03:06:08.923Z,99.99
2018-11-06T03:06:51.019Z,99.99
2018-11-06T03:07:31.380Z,99.99
2018-11-06T03:08:12.490Z,99.99
2018-11-06T03:08:52.714Z,99.99
2018-11-06T03:09:33.267Z,99.99
2018-11-06T03:10:14.759Z,99.99
2018-11-06T03:10:54.321Z,99.99
2018-11-06T03:11:34.845Z,99.99
2018-11-06T03:12:15.272Z,99.99
2018-11-06T03:12:56.428Z,99.99
2018-11-06T03:13:36.519Z,99.99
2018-11-06T03:14:16.951Z,99.99
2018-11-06T03:14:57.486Z,99.99
2018-11-06T03:15:38.204Z,99.99
2018-11-06T03:16:19.352Z,99.99
2018-11-06T03:17:00.001Z,99.99
2018-11-06T03:17:40.271Z,99.99
2018-11-06T03:18:20.689Z,99.99
2018-11-06T03:19:01.201Z,99.99
2018-11-06T03:19:41.534Z,99.99
2018-11-06T03:20:21.917Z,99.99
2018-11-06T03:21:02.525Z,99.99
2018-11-06T03:21:42.776Z,99.99
2018-11-06T03:22:23.230Z,99.99
2018-11-06T03:23:03.563Z,99.99
2018-11-06T03:23:43.973Z,99.99
2018-11-06T03:24:24.388Z,99.99
2018-11-06T03:25:04.894Z,99.99
2018-11-06T03:25:45.283Z,99.99
2018-11-06T03:26:25.709Z,99.99
2018-11-06T03:27:06.212Z,99.99
2018-11-06T03:27:46.528Z,99.99
2018-11-06T03:28:27.236Z,99.99
2018-11-06T03:29:07.579Z,99.99
2018-11-06T03:29:48.409Z,99.99
2018-11-06T03:30:28.683Z,99.99
2018-11-06T03:31:09.481Z,99.99
2018-11-06T03:31:52.259Z,99.99
2018-11-06T03:32:34.790Z,99.99
2018-11-06T03:33:15.478Z,99.99
2018-11-06T03:33:56.204Z,99.99
2018-11-06T03:34:36.801Z,99.99
2018-11-06T03:35:17.304Z,99.99
2018-11-06T03:35:58.236Z,99.99
2018-11-06T03:36:38.696Z,99.99
2018-11-06T03:37:19.008Z,99.99
2018-11-06T03:37:59.723Z,99.99
2018-11-06T03:38:40.190Z,99.99
2018-11-06T03:39:20.782Z,99.99
2018-11-06T03:40:01.947Z,99.99
2018-11-06T03:40:44.288Z,99.99
2018-11-06T03:41:25.208Z,99.99
2018-11-06T03:42:06.047Z,99.99
2018-11-06T03:42:46.425Z,99.99
2018-11-06T03:43:27.885Z,99.99
2018-11-06T03:44:10.591Z,99.99
2018-11-06T03:44:50.165Z,99.99
2018-11-06T03:45:30.525Z,99.99
2018-11-06T03:46:11.269Z,99.99
2018-11-06T03:46:51.533Z,99.99
2018-11-06T03:47:32.852Z,99.99
2018-11-06T03:48:13.484Z,99.99
2018-11-06T03:48:53.759Z,99.99
2018-11-06T03:49:34.888Z,99.99
2018-11-06T03:50:15.336Z,99.99
2018-11-06T03:50:55.703Z,99.99
2018-11-06T03:51:37.241Z,99.99
2018-11-06T03:53:33.482Z,99.99
2018-11-06T03:54:13.896Z,99.99
2018-11-06T03:54:54.330Z,99.99
2018-11-06T03:55:34.968Z,99.99
2018-11-06T03:56:15.180Z,99.99
2018-11-06T03:56:55.556Z,99.99
2018-11-06T03:57:35.998Z,99.99
2018-11-06T03:58:16.386Z,99.99
2018-11-06T03:58:56.753Z,99.99
2018-11-06T03:59:37.173Z,99.99
2018-11-06T04:00:17.555Z,99.99
2018-11-06T04:00:58.013Z,99.99
2018-11-06T04:01:38.604Z,99.99
2018-11-06T04:02:18.837Z,99.99
2018-11-06T04:02:59.213Z,99.99
2018-11-06T04:03:39.610Z,99.99
2018-11-06T04:04:20.262Z,99.99
2018-11-06T04:05:00.481Z,99.99
2018-11-06T04:05:40.868Z,99.99
2018-11-06T04:06:21.323Z,99.99
2018-11-06T04:07:01.689Z,99.99
2018-11-06T04:07:42.105Z,99.99
2018-11-06T04:08:22.504Z,99.99
2018-11-06T04:09:02.947Z,99.99
2018-11-06T04:09:43.280Z,99.99
2018-11-06T04:10:23.723Z,99.99
2018-11-06T04:11:04.093Z,99.99
2018-11-06T04:13:21.936Z,99.99
2018-11-06T04:14:02.060Z,99.99
2018-11-06T04:14:42.449Z,99.99
2018-11-06T04:15:22.878Z,99.99
2018-11-06T04:16:03.261Z,99.99
2018-11-06T04:16:43.636Z,99.99
2018-11-06T04:17:24.008Z,99.99
2018-11-06T04:18:04.417Z,99.99
2018-11-06T04:18:44.796Z,99.99
2018-11-06T04:19:25.190Z,99.99
2018-11-06T04:20:05.643Z,99.99
2018-11-06T04:20:46.025Z,99.99
2018-11-06T04:21:26.419Z,99.99
2018-11-06T04:22:06.837Z,99.99
2018-11-06T04:22:47.281Z,99.99
2018-11-06T04:23:27.674Z,99.99
2018-11-06T04:24:08.047Z,99.99
2018-11-06T04:24:48.470Z,99.99
2018-11-06T04:25:28.842Z,99.99
2018-11-06T04:26:09.332Z,99.99
2018-11-06T04:26:49.681Z,99.99
2018-11-06T04:27:30.150Z,99.99
2018-11-06T04:28:10.552Z,99.99
2018-11-06T05:08:10.816Z,99.99
2018-11-06T05:08:51.189Z,99.99
2018-11-06T05:09:31.600Z,99.99
2018-11-06T05:10:11.984Z,99.99
2018-11-06T05:10:52.416Z,99.99
2018-11-06T05:11:32.811Z,99.99
2018-11-06T05:12:13.196Z,99.99
2018-11-06T05:12:53.641Z,99.99
2018-11-06T05:13:34.072Z,99.99
2018-11-06T05:14:14.585Z,99.99
2018-11-06T05:14:54.812Z,99.99
2018-11-06T05:15:35.248Z,99.99
2018-11-06T05:16:15.639Z,99.95
2018-11-06T05:16:55.989Z,99.99
2018-11-06T05:17:36.393Z,99.99
2018-11-06T05:18:16.759Z,99.18
2018-11-06T05:18:57.223Z,99.66
2018-11-06T05:19:37.591Z,99.46
2018-11-06T05:20:17.981Z,99.75
2018-11-06T05:20:58.353Z,99.27
2018-11-06T05:21:38.781Z,99.75
2018-11-06T05:22:19.132Z,99.46
2018-11-06T05:22:59.529Z,99.99
2018-11-06T05:23:39.903Z,99.99
2018-11-06T05:24:20.378Z,99.56
2018-11-06T05:25:01.088Z,99.99
2018-11-06T05:25:41.268Z,99.99
2018-11-06T05:26:21.644Z,99.99
2018-11-06T05:27:02.108Z,99.99
2018-11-06T05:27:42.445Z,99.66
2018-11-06T05:28:22.950Z,99.99
2018-11-06T05:29:03.303Z,99.99
2018-11-06T05:29:43.757Z,99.99
2018-11-06T05:30:24.100Z,99.99
2018-11-06T05:31:04.466Z,99.99
2018-11-06T05:31:45.013Z,99.99
2018-11-06T05:32:25.258Z,99.99
2018-11-06T05:33:05.684Z,99.99
2018-11-06T05:33:46.040Z,99.99
2018-11-06T05:34:26.452Z,99.99
2018-11-06T05:35:06.831Z,99.99
2018-11-06T05:35:47.211Z,99.99
2018-11-06T05:36:27.672Z,99.99
2018-11-06T05:37:08.150Z,99.99
2018-11-06T05:37:48.392Z,99.99
2018-11-06T05:38:28.846Z,99.99
2018-11-06T05:39:09.313Z,99.99
2018-11-06T05:39:49.562Z,99.99
2018-11-06T05:40:29.968Z,99.99
2018-11-06T05:41:12.905Z,99.99
2018-11-06T05:41:53.249Z,99.99
2018-11-06T05:42:33.597Z,99.99
2018-11-06T05:43:14.051Z,99.99
2018-11-06T05:43:54.444Z,99.99
2018-11-06T05:44:34.836Z,99.99
2018-11-06T05:45:15.203Z,99.99
2018-11-06T05:45:55.662Z,99.99
2018-11-06T05:46:36.118Z,99.99
2018-11-06T05:47:16.521Z,99.99
2018-11-06T05:47:56.904Z,99.99
2018-11-06T05:48:37.474Z,99.99
2018-11-06T05:49:17.939Z,99.99
2018-11-06T05:49:58.317Z,99.99
2018-11-06T05:50:38.727Z,99.99
2018-11-06T05:51:19.108Z,99.99
2018-11-06T05:51:59.809Z,99.99
2018-11-06T05:52:40.190Z,99.85
2018-11-06T05:53:20.669Z,99.99
2018-11-06T05:54:00.962Z,99.99
2018-11-06T05:55:48.264Z,99.99
2018-11-06T05:56:28.620Z,99.99
2018-11-06T05:57:09.045Z,99.66
2018-11-06T05:57:49.449Z,99.66
2018-11-06T05:58:29.941Z,99.85
2018-11-06T05:59:10.335Z,99.99
2018-11-06T05:59:50.725Z,99.46
2018-11-06T06:00:31.176Z,99.99
2018-11-06T06:01:11.540Z,99.95
2018-11-06T06:01:51.942Z,99.99
2018-11-06T06:02:32.326Z,99.99
2018-11-06T06:03:13.051Z,99.99
2018-11-06T06:03:56.984Z,99.99
2018-11-06T06:04:37.388Z,99.99
2018-11-06T06:05:17.732Z,99.46
2018-11-06T06:05:58.206Z,99.37
2018-11-06T06:06:38.590Z,99.27
2018-11-06T06:07:20.589Z,99.56
2018-11-06T06:08:01.010Z,98.13
2018-11-06T06:08:41.415Z,99.08
2018-11-06T06:09:22.002Z,98.8
2018-11-06T06:10:02.429Z,98.9
2018-11-06T06:10:42.811Z,98.42
2018-11-06T06:11:23.193Z,98.42
2018-11-06T06:12:03.641Z,98.03
2018-11-06T06:12:44.041Z,97.56
2018-11-06T06:13:24.446Z,97.94
2018-11-06T06:14:04.825Z,98.13
2018-11-06T06:14:45.262Z,98.13
2018-11-06T06:15:25.635Z,97.85
2018-11-06T06:16:06.054Z,97.85
2018-11-06T06:16:46.483Z,97.75
2018-11-06T06:17:26.819Z,97.94
2018-11-06T06:19:19.188Z,98.8
2018-11-06T06:19:59.518Z,99.66
2018-11-06T06:20:39.948Z,99.46
2018-11-06T06:21:20.362Z,99.75
2018-11-06T06:22:00.709Z,99.99
2018-11-06T06:22:41.422Z,99.66
2018-11-06T06:23:21.707Z,99.85
2018-11-06T06:24:02.118Z,99.18
2018-11-06T06:24:42.470Z,99.66
2018-11-06T06:25:22.899Z,99.66
2018-11-06T06:26:03.285Z,98.8
2018-11-06T06:26:43.668Z,98.8
2018-11-06T06:27:24.077Z,98.32
2018-11-06T06:28:04.486Z,98.8
2018-11-06T06:28:44.873Z,98.7
2018-11-06T06:29:25.255Z,98.7
2018-11-06T06:30:05.644Z,98.03
2018-11-06T06:30:46.099Z,98.8
2018-11-06T06:31:26.455Z,98.61
2018-11-06T06:32:06.829Z,98.99
2018-11-06T06:32:47.229Z,98.9
2018-11-06T06:33:27.629Z,98.8
2018-11-06T06:34:08.045Z,99.46
2018-11-06T06:34:48.418Z,98.8
2018-11-06T06:35:28.826Z,98.99
2018-11-06T06:36:09.277Z,98.42
2018-11-06T06:36:49.611Z,97.94
2018-11-06T06:37:30.024Z,98.51
2018-11-06T06:38:10.444Z,98.13
2018-11-06T06:38:51.057Z,98.32
2018-11-06T06:39:31.341Z,98.22
2018-11-06T06:40:11.863Z,98.61
2018-11-06T06:40:52.232Z,97.46
2018-11-06T06:41:32.568Z,97.37
2018-11-06T06:42:13.043Z,97.51
2018-11-06T06:42:53.439Z,97.08
2018-11-06T06:43:33.812Z,96.32
2018-11-06T06:44:14.237Z,96.03
2018-11-06T06:44:54.663Z,95.94
2018-11-06T06:45:35.049Z,96.98
2018-11-06T06:46:15.481Z,97.46
2018-11-06T06:46:55.854Z,97.08
2018-11-06T06:47:36.254Z,96.89
2018-11-06T06:48:16.676Z,97.75
2018-11-06T06:48:59.112Z,97.08
2018-11-06T06:49:38.636Z,96.41
2018-11-06T06:50:19.146Z,97.37
2018-11-06T06:50:59.531Z,97.46
2018-11-06T06:51:39.943Z,97.85
2018-11-06T06:53:32.321Z,98.42
2018-11-06T06:54:12.797Z,98.22
2018-11-06T06:54:53.090Z,98.51
2018-11-06T06:55:34.413Z,98.99
2018-11-06T06:56:14.789Z,98.9
2018-11-06T06:56:55.203Z,98.9
2018-11-06T06:57:35.940Z,98.9
2018-11-06T06:58:17.474Z,98.61
2018-11-06T06:58:57.871Z,97.75
2018-11-06T06:59:38.296Z,97.17
2018-11-06T07:00:18.823Z,98.22
2018-11-06T07:00:59.211Z,98.8
2018-11-06T07:01:39.657Z,98.8
2018-11-06T07:02:19.971Z,98.8
2018-11-06T07:03:00.578Z,98.8
2018-11-06T07:03:41.006Z,98.42
2018-11-06T07:04:21.415Z,98.7
2018-11-06T07:05:01.808Z,98.42
2018-11-06T07:05:42.256Z,98.22
2018-11-06T07:06:22.791Z,98.37
2018-11-06T07:07:03.255Z,98.03
2018-11-06T07:07:43.893Z,98.27
2018-11-06T07:08:24.342Z,97.66
2018-11-06T07:09:04.698Z,97.13
2018-11-06T07:09:45.147Z,97.71
2018-11-06T07:10:25.531Z,97.51
2018-11-06T07:11:05.998Z,96.37
2018-11-06T07:11:46.448Z,96.66
2018-11-06T07:12:27.551Z,96.08
2018-11-06T07:13:07.475Z,95.89
2018-11-06T07:13:47.784Z,94.93
2018-11-06T07:14:28.203Z,94.74
2018-11-06T07:15:09.017Z,94.41
2018-11-06T07:15:50.177Z,93.46
2018-11-06T07:16:31.384Z,93.17
2018-11-06T07:17:11.940Z,92.12
2018-11-06T07:17:52.470Z,91.93
2018-11-06T07:18:32.987Z,91.78
2018-11-06T07:19:13.491Z,90.64
2018-11-06T07:19:54.065Z,90.35
2018-11-06T07:20:34.663Z,89.68
2018-11-06T07:21:15.233Z,89.3
2018-11-06T07:21:55.920Z,89.11
2018-11-06T07:22:36.599Z,88.58
2018-11-06T07:23:17.228Z,88.44
2018-11-06T07:23:59.266Z,88.25
2018-11-06T07:24:39.734Z,88.29
2018-11-06T07:25:20.289Z,87.62
2018-11-06T07:26:00.863Z,87.53
2018-11-06T07:26:42.148Z,87.91
2018-11-06T07:27:22.698Z,87.53
2018-11-06T07:28:03.598Z,87.62
2018-11-06T07:28:44.500Z,87.62
2018-11-06T07:29:25.388Z,87.43
2018-11-06T07:30:06.023Z,87.15
2018-11-06T07:30:46.536Z,86.38
2018-11-06T07:31:27.057Z,85.47
2018-11-06T07:32:07.810Z,84.99
2018-11-06T07:32:48.401Z,84.42
2018-11-06T07:33:28.895Z,84.08
2018-11-06T07:34:11.658Z,83.03
2018-11-06T07:34:53.696Z,82.07
2018-11-06T07:35:33.619Z,80.92
2018-11-06T07:36:14.105Z,80.63
2018-11-06T07:36:54.604Z,80.58
2018-11-06T07:37:36.061Z,79.81
2018-11-06T07:38:15.779Z,79.33
2018-11-06T07:38:56.298Z,79.14
2018-11-06T07:40:54.550Z,79.14
2018-11-06T07:41:35.003Z,78.66
2018-11-06T07:42:15.623Z,78.76
2018-11-06T07:42:56.149Z,77.9
2018-11-06T07:43:36.734Z,78.09
2018-11-06T07:44:18.199Z,77.99
2018-11-06T07:44:58.977Z,78.28
2018-11-06T07:45:39.719Z,78.47
2018-11-06T07:46:19.916Z,78.76
2018-11-06T07:47:00.673Z,77.94
2018-11-06T07:47:41.338Z,77.42
2018-11-06T07:48:21.510Z,77.75
2018-11-06T07:49:02.036Z,77.46
2018-11-06T07:49:42.430Z,77.55
2018-11-06T07:50:22.895Z,77.08
2018-11-06T07:51:03.268Z,77.65
2018-11-06T07:51:43.729Z,78.13
2018-11-06T07:52:24.186Z,78.03
2018-11-06T07:53:04.831Z,77.75
2018-11-06T07:53:46.336Z,77.75
2018-11-06T07:54:26.871Z,77.84
2018-11-06T07:55:07.433Z,77.55
2018-11-06T07:55:48.118Z,76.98
2018-11-06T07:56:28.515Z,77.55
2018-11-06T07:57:09.033Z,77.84
2018-11-06T07:57:49.494Z,77.65
2018-11-06T07:58:30.063Z,77.17
2018-11-06T07:59:11.150Z,77.26
2018-11-06T07:59:52.756Z,77.04
2018-11-06T08:00:32.303Z,77.33
2018-11-06T08:01:12.676Z,77.7
2018-11-06T08:01:53.090Z,78.09
2018-11-06T08:02:34.005Z,77.99
2018-11-06T08:03:16.903Z,78.86
2018-11-06T08:03:58.335Z,78.76
2018-11-06T08:04:40.786Z,78.76
2018-11-06T08:05:21.142Z,78.86
2018-11-06T08:06:01.620Z,79.05
2018-11-06T08:06:42.011Z,79.24
2018-11-06T08:07:22.452Z,78.76
2018-11-06T08:08:02.837Z,78.38
2018-11-06T08:08:43.315Z,77.8
2018-11-06T08:09:23.645Z,77.99
2018-11-06T08:10:04.242Z,78.13
2018-11-06T08:10:44.669Z,78.03
2018-11-06T08:11:25.075Z,77.55
2018-11-06T08:12:05.518Z,77.08
2018-11-06T08:12:46.247Z,76.31
2018-11-06T08:13:26.691Z,75.87
2018-11-06T08:14:07.084Z,75.1
2018-11-06T08:14:47.555Z,75.01
2018-11-06T08:15:28.698Z,74.43
2018-11-06T08:16:09.181Z,73.99
2018-11-06T08:16:52.308Z,73.99
2018-11-06T08:17:32.728Z,73.9
2018-11-06T08:18:13.125Z,73.9
2018-11-06T08:18:53.601Z,72.84
2018-11-06T08:19:34.002Z,72.55
2018-11-06T08:20:14.479Z,72.39
2018-11-06T08:20:57.437Z,72.01
2018-11-06T08:21:37.834Z,72.01
2018-11-06T08:22:18.424Z,71.19
2018-11-06T08:22:58.811Z,70.9
2018-11-06T08:23:39.269Z,70.32
2018-11-06T08:24:20.236Z,69.56
2018-11-06T08:25:01.169Z,68.98
2018-11-06T08:25:41.636Z,69.26
2018-11-06T08:26:22.069Z,70.03
2018-11-06T08:27:02.565Z,70
2018-11-06T08:27:43.080Z,70.76
2018-11-06T08:28:23.464Z,69.71
2018-11-06T08:29:03.848Z,70.19
2018-11-06T08:29:44.305Z,70.86
2018-11-06T08:30:24.769Z,70.67
2018-11-06T08:31:05.288Z,70.86
2018-11-06T08:31:46.419Z,70.86
2018-11-06T08:32:26.906Z,70.42
2018-11-06T08:33:06.872Z,69.36
2018-11-06T08:33:47.279Z,69.93
2018-11-06T08:34:27.739Z,69.36
2018-11-06T08:35:08.298Z,68.98
2018-11-06T08:35:48.739Z,68.4
2018-11-06T08:36:29.219Z,68.3
2018-11-06T08:37:09.666Z,68.69
2018-11-06T08:37:49.994Z,68.59
2018-11-06T08:38:30.418Z,68.5
2018-11-06T08:39:10.865Z,69.17
2018-11-06T08:39:51.283Z,69.17
2018-11-06T08:40:32.124Z,68.88
2018-11-06T08:41:12.474Z,69.07
2018-11-06T08:41:52.967Z,68.98
2018-11-06T08:42:34.317Z,69.07
2018-11-06T08:43:14.609Z,68.69
2018-11-06T08:43:55.174Z,69.26
2018-11-06T08:44:35.824Z,69.17
2018-11-06T08:45:16.960Z,68.79
2018-11-06T08:45:57.618Z,68.5
2018-11-06T08:46:38.129Z,68.88
2018-11-06T08:47:18.616Z,68.98
2018-11-06T08:47:59.160Z,69.26
2018-11-06T08:48:39.898Z,69.36
2018-11-06T08:49:20.408Z,69.36
2018-11-06T08:50:03.214Z,69.56
2018-11-06T08:50:43.890Z,69.36
2018-11-06T08:51:30.681Z,69.07
2018-11-06T08:52:12.853Z,69.36
2018-11-06T08:52:58.980Z,68.88
2018-11-06T08:53:40.860Z,68.79
2018-11-06T08:54:21.436Z,68.59
2018-11-06T08:55:01.821Z,68.69
2018-11-06T08:55:43.694Z,68.24
2018-11-06T08:56:23.730Z,67.76
2018-11-06T08:57:04.195Z,68.15
2018-11-06T08:57:45.160Z,67.29
2018-11-06T08:58:26.229Z,67.19
2018-11-06T08:59:06.214Z,66.52
2018-11-06T08:59:46.646Z,66.42
2018-11-06T09:00:27.165Z,67.38
2018-11-06T09:01:07.660Z,68.44
2018-11-06T09:02:48.340Z,67.29
2018-11-06T09:03:39.789Z,67.38
2018-11-06T09:05:46.424Z,65.94
2018-11-06T09:08:29.009Z,67.35
2018-11-06T09:09:11.049Z,67.44
2018-11-06T09:09:52.078Z,68.12
2018-11-06T09:10:58.013Z,68.3
2018-11-06T09:11:53.968Z,68.02
2018-11-06T09:12:39.534Z,67.83
2018-11-06T09:13:20.897Z,68.12
2018-11-06T09:14:01.379Z,67.92
2018-11-06T09:14:41.811Z,68.59
2018-11-06T09:15:22.264Z,69.04
2018-11-06T09:16:02.637Z,69.13
2018-11-06T09:16:43.137Z,69.42
2018-11-06T09:17:23.701Z,69.33
2018-11-06T09:18:04.121Z,70
2018-11-06T09:18:44.513Z,70.09
2018-11-06T09:19:24.919Z,70.19
2018-11-06T09:20:05.517Z,70.09
2018-11-06T09:20:45.931Z,69.84
2018-11-06T09:21:26.420Z,69.26
2018-11-06T09:22:06.787Z,68.69
2018-11-06T09:22:47.983Z,67.92
2018-11-06T09:23:28.152Z,67.63
2018-11-06T09:24:08.512Z,67.47
2018-11-06T09:24:49.001Z,67.73
2018-11-06T09:25:29.626Z,67.16
2018-11-06T09:26:10.102Z,67.73
2018-11-06T09:26:50.680Z,67.54
2018-11-06T09:27:31.079Z,68.02
2018-11-06T09:28:11.732Z,68.4
2018-11-06T09:28:52.166Z,68.3
2018-11-06T09:29:32.637Z,68.59
2018-11-06T09:30:13.315Z,69.07
2018-11-06T09:30:54.984Z,68.69
2018-11-06T09:31:36.507Z,69.36
2018-11-06T09:32:17.194Z,68.98
2018-11-06T09:32:57.233Z,68.75
2018-11-06T09:33:37.841Z,69.42
2018-11-06T09:34:18.263Z,69.23
2018-11-06T09:34:59.391Z,69.33
2018-11-06T09:35:40.159Z,69.26
2018-11-06T09:36:21.009Z,69.36
2018-11-06T09:37:01.499Z,69.26
2018-11-06T09:37:42.198Z,68.24
2018-11-06T09:38:23.007Z,67.47
2018-11-06T09:39:03.600Z,67.47
2018-11-06T09:39:44.126Z,66.33
2018-11-06T09:40:24.552Z,66.61
2018-11-06T09:41:05.552Z,67.19
2018-11-06T09:41:46.024Z,67.19
2018-11-06T09:42:26.461Z,66.26
2018-11-06T09:43:06.856Z,65.78
2018-11-06T09:43:47.489Z,65.4
2018-11-06T09:44:27.775Z,65.62